sensor_id;sensor_type;location;lat;lon;timestamp;pressure;altitude;pressure_sealevel;temperature;humidity
9421;BME280;4749;51.398;5.466;2023-04-24T00:02:26;99837.25;;;10.93;100.00
9421;BME280;4749;51.398;5.466;2023-04-24T00:04:54;99837.25;;;10.93;100.00
9421;BME280;4749;51.398;5.466;2023-04-24T00:07:21;99839.91;;;10.91;100.00
9421;BME280;4749;51.398;5.466;2023-04-24T00:09:48;99836.41;;;10.91;100.00
9421;BME280;4749;51.398;5.466;2023-04-24T00:12:15;99847.84;;;10.90;100.00
9421;BME280;4749;51.398;5.466;2023-04-24T00:14:42;99852.22;;;10.89;100.00
9421;BME280;4749;51.398;5.466;2023-04-24T00:17:09;99842.56;;;10.90;100.00
9421;BME280;4749;51.398;5.466;2023-04-24T00:19:36;99851.34;;;10.90;100.00
9421;BME280;4749;51.398;5.466;2023-04-24T00:22:03;99851.38;;;10.87;100.00
9421;BME280;4749;51.398;5.466;2023-04-24T00:24:31;99860.16;;;10.86;100.00
9421;BME280;4749;51.398;5.466;2023-04-24T00:26:58;99846.16;;;10.84;100.00
9421;BME280;4749;51.398;5.466;2023-04-24T00:29:25;99856.66;;;10.84;100.00
9421;BME280;4749;51.398;5.466;2023-04-24T00:31:52;99853.16;;;10.84;100.00
9421;BME280;4749;51.398;5.466;2023-04-24T00:42:34;99866.44;;;10.78;100.00
9421;BME280;4749;51.398;5.466;2023-04-24T00:45:01;99858.53;;;10.78;100.00
9421;BME280;4749;51.398;5.466;2023-04-24T00:47:30;99864.69;;;10.77;100.00
9421;BME280;4749;51.398;5.466;2023-04-24T00:49:57;99858.59;;;10.73;100.00
9421;BME280;4749;51.398;5.466;2023-04-24T00:52:24;99857.75;;;10.71;100.00
9421;BME280;4749;51.398;5.466;2023-04-24T00:54:52;99863.91;;;10.70;100.00
9421;BME280;4749;51.398;5.466;2023-04-24T00:57:20;99875.25;;;10.72;100.00
9421;BME280;4749;51.398;5.466;2023-04-24T00:59:47;99858.63;;;10.71;100.00
9421;BME280;4749;51.398;5.466;2023-04-24T01:02:14;99857.75;;;10.71;100.00
9421;BME280;4749;51.398;5.466;2023-04-24T01:04:42;99856.00;;;10.70;100.00
9421;BME280;4749;51.398;5.466;2023-04-24T01:07:09;99866.56;;;10.68;100.00
9421;BME280;4749;51.398;5.466;2023-04-24T01:09:40;99856.06;;;10.65;100.00
9421;BME280;4749;51.398;5.466;2023-04-24T01:12:11;99857.81;;;10.65;100.00
9421;BME280;4749;51.398;5.466;2023-04-24T01:14:39;99856.94;;;10.64;100.00
9421;BME280;4749;51.398;5.466;2023-04-24T01:17:06;99856.09;;;10.64;100.00
9421;BME280;4749;51.398;5.466;2023-04-24T01:19:34;99861.38;;;10.62;100.00
9421;BME280;4749;51.398;5.466;2023-04-24T01:22:02;99856.13;;;10.61;100.00
9421;BME280;4749;51.398;5.466;2023-04-24T01:24:30;99857.88;;;10.62;100.00
9421;BME280;4749;51.398;5.466;2023-04-24T01:26:57;99856.03;;;10.68;100.00
9421;BME280;4749;51.398;5.466;2023-04-24T01:29:24;99851.75;;;10.61;100.00
9421;BME280;4749;51.398;5.466;2023-04-24T01:31:52;99860.50;;;10.62;100.00
9421;BME280;4749;51.398;5.466;2023-04-24T01:34:19;99858.78;;;10.61;100.00
9421;BME280;4749;51.398;5.466;2023-04-24T01:36:46;99858.78;;;10.61;100.00
9421;BME280;4749;51.398;5.466;2023-04-24T01:39:14;99866.63;;;10.62;100.00
9421;BME280;4749;51.398;5.466;2023-04-24T01:41:43;99857.88;;;10.62;100.00
9421;BME280;4749;51.398;5.466;2023-04-24T01:44:10;99850.84;;;10.62;100.00
9421;BME280;4749;51.398;5.466;2023-04-24T01:46:38;99862.22;;;10.64;100.00
9421;BME280;4749;51.398;5.466;2023-04-24T01:49:05;99853.44;;;10.65;100.00
9421;BME280;4749;51.398;5.466;2023-04-24T01:51:32;99851.66;;;10.66;100.00
9421;BME280;4749;51.398;5.466;2023-04-24T01:53:59;99860.44;;;10.65;100.00
9421;BME280;4749;51.398;5.466;2023-04-24T01:56:29;99860.41;;;10.66;100.00
9421;BME280;4749;51.398;5.466;2023-04-24T01:59:00;99864.81;;;10.66;100.00
9421;BME280;4749;51.398;5.466;2023-04-24T02:01:27;99854.28;;;10.66;100.00
9421;BME280;4749;51.398;5.466;2023-04-24T02:03:54;99865.72;;;10.63;100.00
9421;BME280;4749;51.398;5.466;2023-04-24T02:06:21;99864.81;;;10.66;100.00
9421;BME280;4749;51.398;5.466;2023-04-24T02:08:49;99859.59;;;10.64;100.00
9421;BME280;4749;51.398;5.466;2023-04-24T02:19:22;99871.03;;;10.60;100.00
9421;BME280;4749;51.398;5.466;2023-04-24T02:21:49;99865.75;;;10.62;100.00
9421;BME280;4749;51.398;5.466;2023-04-24T02:24:17;99864.88;;;10.63;100.00
9421;BME280;4749;51.398;5.466;2023-04-24T02:26:44;99856.94;;;10.64;100.00
9421;BME280;4749;51.398;5.466;2023-04-24T02:29:11;99861.28;;;10.67;100.00
9421;BME280;4749;51.398;5.466;2023-04-24T02:31:38;99862.16;;;10.67;100.00
9421;BME280;4749;51.398;5.466;2023-04-24T02:34:05;99861.22;;;10.73;100.00
9421;BME280;4749;51.398;5.466;2023-04-24T02:36:32;99859.53;;;10.67;100.00
9421;BME280;4749;51.398;5.466;2023-04-24T02:38:59;99861.31;;;10.65;100.00
9421;BME280;4749;51.398;5.466;2023-04-24T02:41:27;99851.69;;;10.64;100.00
9421;BME280;4749;51.398;5.466;2023-04-24T02:43:59;99861.34;;;10.64;100.00
9421;BME280;4749;51.398;5.466;2023-04-24T02:46:26;99858.69;;;10.65;100.00
9421;BME280;4749;51.398;5.466;2023-04-24T02:48:53;99855.16;;;10.66;100.00
9421;BME280;4749;51.398;5.466;2023-04-24T02:51:20;99855.16;;;10.68;100.00
9421;BME280;4749;51.398;5.466;2023-04-24T02:53:47;99853.38;;;10.70;100.00
9421;BME280;4749;51.398;5.466;2023-04-24T02:56:14;99852.53;;;10.68;100.00
9421;BME280;4749;51.398;5.466;2023-04-24T02:58:42;99855.16;;;10.68;100.00
9421;BME280;4749;51.398;5.466;2023-04-24T03:01:09;99859.53;;;10.69;100.00
9421;BME280;4749;51.398;5.466;2023-04-24T03:03:38;99854.28;;;10.67;100.00
9421;BME280;4749;51.398;5.466;2023-04-24T03:06:06;99843.78;;;10.66;100.00
9421;BME280;4749;51.398;5.466;2023-04-24T03:08:35;99855.16;;;10.66;100.00
9421;BME280;4749;51.398;5.466;2023-04-24T03:11:02;99861.38;;;10.62;100.00
9421;BME280;4749;51.398;5.466;2023-04-24T03:13:29;99849.09;;;10.63;100.00
9421;BME280;4749;51.398;5.466;2023-04-24T03:15:56;99854.34;;;10.63;100.00
9421;BME280;4749;51.398;5.466;2023-04-24T03:18:23;99851.75;;;10.61;100.00
9421;BME280;4749;51.398;5.466;2023-04-24T03:20:50;99854.34;;;10.63;100.00
9421;BME280;4749;51.398;5.466;2023-04-24T03:23:17;99856.09;;;10.62;100.00
9421;BME280;4749;51.398;5.466;2023-04-24T03:25:44;99851.75;;;10.61;100.00
9421;BME280;4749;51.398;5.466;2023-04-24T03:28:12;99850.88;;;10.59;100.00
9421;BME280;4749;51.398;5.466;2023-04-24T03:30:39;99852.63;;;10.59;100.00
9421;BME280;4749;51.398;5.466;2023-04-24T03:33:06;99862.31;;;10.57;100.00
9421;BME280;4749;51.398;5.466;2023-04-24T03:35:33;99866.69;;;10.56;100.00
9421;BME280;4749;51.398;5.466;2023-04-24T03:38:00;99863.22;;;10.54;100.00
9421;BME280;4749;51.398;5.466;2023-04-24T03:40:27;99861.44;;;10.56;100.00
9421;BME280;4749;51.398;5.466;2023-04-24T03:42:56;99869.31;;;10.56;100.00
9421;BME280;4749;51.398;5.466;2023-04-24T03:45:23;99869.31;;;10.56;100.00
9421;BME280;4749;51.398;5.466;2023-04-24T03:47:51;99864.09;;;10.55;100.00
9421;BME280;4749;51.398;5.466;2023-04-24T03:50:18;99854.47;;;10.54;100.00
9421;BME280;4749;51.398;5.466;2023-04-24T03:52:45;99858.81;;;10.56;100.00
9421;BME280;4749;51.398;5.466;2023-04-24T03:55:12;99857.94;;;10.56;100.00
9421;BME280;4749;51.398;5.466;2023-04-24T03:57:40;99860.56;;;10.56;100.00
9421;BME280;4749;51.398;5.466;2023-04-24T04:00:08;99869.34;;;10.55;100.00
9421;BME280;4749;51.398;5.466;2023-04-24T04:02:36;99852.75;;;10.53;100.00
9421;BME280;4749;51.398;5.466;2023-04-24T04:05:04;99860.66;;;10.51;100.00
9421;BME280;4749;51.398;5.466;2023-04-24T04:07:31;99864.19;;;10.47;100.00
9421;BME280;4749;51.398;5.466;2023-04-24T04:09:58;99856.34;;;10.44;100.00
9421;BME280;4749;51.398;5.466;2023-04-24T04:12:26;99867.75;;;10.41;100.00
9421;BME280;4749;51.398;5.466;2023-04-24T04:14:53;99860.84;;;10.36;100.00
9421;BME280;4749;51.398;5.466;2023-04-24T04:17:20;99870.44;;;10.37;100.00
9421;BME280;4749;51.398;5.466;2023-04-24T04:19:47;99866.97;;;10.35;100.00
9421;BME280;4749;51.398;5.466;2023-04-24T04:22:14;99863.50;;;10.31;100.00
9421;BME280;4749;51.398;5.466;2023-04-24T04:24:41;99867.06;;;10.27;100.00
9421;BME280;4749;51.398;5.466;2023-04-24T04:27:09;99867.97;;;10.26;100.00
9421;BME280;4749;51.398;5.466;2023-04-24T04:29:36;99868.81;;;10.25;100.00
9421;BME280;4749;51.398;5.466;2023-04-24T04:32:03;99872.34;;;10.26;100.00
9421;BME280;4749;51.398;5.466;2023-04-24T04:34:30;99873.19;;;10.25;100.00
9421;BME280;4749;51.398;5.466;2023-04-24T04:36:58;99872.34;;;10.21;100.00
9421;BME280;4749;51.398;5.466;2023-04-24T04:39:28;99867.16;;;10.15;100.00
9421;BME280;4749;51.398;5.466;2023-04-24T04:41:56;99867.22;;;10.10;100.00
9421;BME280;4749;51.398;5.466;2023-04-24T04:44:23;99871.59;;;10.08;100.00
9421;BME280;4749;51.398;5.466;2023-04-24T04:46:51;99871.63;;;10.07;100.00
9421;BME280;4749;51.398;5.466;2023-04-24T04:49:19;99885.72;;;9.98;100.00
9421;BME280;4749;51.398;5.466;2023-04-24T04:51:48;99886.66;;;9.94;100.00
9421;BME280;4749;51.398;5.466;2023-04-24T04:54:17;99878.78;;;9.90;100.00
9421;BME280;4749;51.398;5.466;2023-04-24T04:56:45;99882.28;;;9.92;100.00
9421;BME280;4749;51.398;5.466;2023-04-24T04:59:12;99881.38;;;9.94;100.00
9421;BME280;4749;51.398;5.466;2023-04-24T05:01:39;99887.44;;;9.99;100.00
9421;BME280;4749;51.398;5.466;2023-04-24T05:04:07;99885.69;;;10.03;100.00
9421;BME280;4749;51.398;5.466;2023-04-24T05:06:34;99887.41;;;10.04;100.00
9421;BME280;4749;51.398;5.466;2023-04-24T05:09:01;99892.69;;;10.02;100.00
9421;BME280;4749;51.398;5.466;2023-04-24T05:11:28;99891.81;;;10.02;100.00
9421;BME280;4749;51.398;5.466;2023-04-24T05:13:56;99894.44;;;10.03;100.00
9421;BME280;4749;51.398;5.466;2023-04-24T05:16:23;99884.81;;;10.02;100.00
9421;BME280;4749;51.398;5.466;2023-04-24T05:18:52;99896.19;;;10.01;100.00
9421;BME280;4749;51.398;5.466;2023-04-24T05:21:19;99890.97;;;9.98;100.00
9421;BME280;4749;51.398;5.466;2023-04-24T05:23:47;99900.59;;;9.98;100.00
9421;BME280;4749;51.398;5.466;2023-04-24T05:26:14;99905.84;;;9.98;100.00
9421;BME280;4749;51.398;5.466;2023-04-24T05:28:43;99914.59;;;9.98;100.00
9421;BME280;4749;51.398;5.466;2023-04-24T05:31:10;99919.88;;;9.97;100.00
9421;BME280;4749;51.398;5.466;2023-04-24T05:33:45;99923.38;;;9.96;100.00
9421;BME280;4749;51.398;5.466;2023-04-24T05:36:13;99932.16;;;9.95;100.00
9421;BME280;4749;51.398;5.466;2023-04-24T05:38:42;99931.28;;;9.91;100.00
9421;BME280;4749;51.398;5.466;2023-04-24T05:41:10;99938.34;;;9.87;100.00
9421;BME280;4749;51.398;5.466;2023-04-24T05:43:37;99934.88;;;9.82;100.00
9421;BME280;4749;51.398;5.466;2023-04-24T05:46:05;99935.81;;;9.77;100.00
9421;BME280;4749;51.398;5.466;2023-04-24T05:48:35;99944.56;;;9.73;100.00
9421;BME280;4749;51.398;5.466;2023-04-24T05:51:02;99935.84;;;9.71;100.00
9421;BME280;4749;51.398;5.466;2023-04-24T05:53:30;99940.22;;;9.72;100.00
9421;BME280;4749;51.398;5.466;2023-04-24T05:55:59;99943.72;;;9.72;100.00
9421;BME280;4749;51.398;5.466;2023-04-24T05:58:30;99932.34;;;9.70;100.00
9421;BME280;4749;51.398;5.466;2023-04-24T06:00:57;99943.75;;;9.69;100.00
9421;BME280;4749;51.398;5.466;2023-04-24T06:03:25;99942.88;;;9.66;100.00
9421;BME280;4749;51.398;5.466;2023-04-24T06:05:53;99946.41;;;9.63;100.00
9421;BME280;4749;51.398;5.466;2023-04-24T06:08:20;99955.19;;;9.57;100.00
9421;BME280;4749;51.398;5.466;2023-04-24T06:10:47;99957.00;;;9.52;100.00
9421;BME280;4749;51.398;5.466;2023-04-24T06:13:14;99966.63;;;9.50;100.00
9421;BME280;4749;51.398;5.466;2023-04-24T06:15:42;99975.34;;;9.49;100.00
9421;BME280;4749;51.398;5.466;2023-04-24T06:18:10;99982.38;;;9.50;100.00
9421;BME280;4749;51.398;5.466;2023-04-24T06:20:37;99975.38;;;9.48;100.00
9421;BME280;4749;51.398;5.466;2023-04-24T06:23:05;99983.22;;;9.49;100.00
9421;BME280;4749;51.398;5.466;2023-04-24T06:25:33;100006.84;;;9.48;100.00
9421;BME280;4749;51.398;5.466;2023-04-24T06:28:00;99999.88;;;9.45;100.00
9421;BME280;4749;51.398;5.466;2023-04-24T06:30:28;100004.25;;;9.45;100.00
9421;BME280;4749;51.398;5.466;2023-04-24T06:32:55;100011.25;;;9.46;100.00
9421;BME280;4749;51.398;5.466;2023-04-24T06:35:36;100013.00;;;9.45;100.00
9421;BME280;4749;51.398;5.466;2023-04-24T06:38:04;100014.72;;;9.48;100.00
9421;BME280;4749;51.398;5.466;2023-04-24T06:40:32;100033.91;;;9.61;100.00
9421;BME280;4749;51.398;5.466;2023-04-24T06:43:00;100038.31;;;9.52;100.00
9421;BME280;4749;51.398;5.466;2023-04-24T06:45:29;100033.03;;;9.57;100.00
9421;BME280;4749;51.398;5.466;2023-04-24T06:47:56;100038.28;;;9.62;100.00
9421;BME280;4749;51.398;5.466;2023-04-24T06:50:24;100056.66;;;9.57;100.00
9421;BME280;4749;51.398;5.466;2023-04-24T06:52:52;100056.66;;;9.55;100.00
9421;BME280;4749;51.398;5.466;2023-04-24T06:55:19;100059.28;;;9.55;100.00
9421;BME280;4749;51.398;5.466;2023-04-24T06:57:46;100074.16;;;9.56;100.00
9421;BME280;4749;51.398;5.466;2023-04-24T07:00:13;100088.16;;;9.60;100.00
9421;BME280;4749;51.398;5.466;2023-04-24T07:02:40;100082.88;;;9.63;100.00
9421;BME280;4749;51.398;5.466;2023-04-24T07:05:08;100102.09;;;9.64;100.00
9421;BME280;4749;51.398;5.466;2023-04-24T07:07:35;100109.97;;;9.65;100.00
9421;BME280;4749;51.398;5.466;2023-04-24T07:10:07;100105.59;;;9.66;100.00
9421;BME280;4749;51.398;5.466;2023-04-24T07:12:35;100114.34;;;9.66;100.00
9421;BME280;4749;51.398;5.466;2023-04-24T07:15:03;100128.34;;;9.64;100.00
9421;BME280;4749;51.398;5.466;2023-04-24T07:17:30;100137.97;;;9.63;100.00
9421;BME280;4749;51.398;5.466;2023-04-24T07:19:57;100142.34;;;9.63;100.00
9421;BME280;4749;51.398;5.466;2023-04-24T07:22:24;100151.97;;;9.62;100.00
9421;BME280;4749;51.398;5.466;2023-04-24T07:24:51;100151.97;;;9.68;100.00
9421;BME280;4749;51.398;5.466;2023-04-24T07:27:18;100161.56;;;9.75;100.00
9421;BME280;4749;51.398;5.466;2023-04-24T07:29:45;100170.31;;;9.76;100.00
9421;BME280;4749;51.398;5.466;2023-04-24T07:32:13;100177.28;;;9.74;100.00
9421;BME280;4749;51.398;5.466;2023-04-24T07:34:40;100185.19;;;9.75;100.00
9421;BME280;4749;51.398;5.466;2023-04-24T07:37:07;100185.19;;;9.69;100.00
9421;BME280;4749;51.398;5.466;2023-04-24T07:39:35;100199.22;;;9.64;100.00
9421;BME280;4749;51.398;5.466;2023-04-24T07:42:03;100214.97;;;9.61;100.00
9421;BME280;4749;51.398;5.466;2023-04-24T07:44:30;100216.69;;;9.65;100.00
9421;BME280;4749;51.398;5.466;2023-04-24T07:46:57;100235.94;;;9.67;100.00
9421;BME280;4749;51.398;5.466;2023-04-24T07:49:24;100235.94;;;9.71;100.00
9421;BME280;4749;51.398;5.466;2023-04-24T07:51:51;100244.66;;;9.75;100.00
9421;BME280;4749;51.398;5.466;2023-04-24T07:54:18;100256.03;;;9.80;100.00
9421;BME280;4749;51.398;5.466;2023-04-24T07:56:45;100256.00;;;9.83;100.00
9421;BME280;4749;51.398;5.466;2023-04-24T07:59:12;100263.00;;;9.88;100.00
9421;BME280;4749;51.398;5.466;2023-04-24T08:01:39;100269.13;;;9.92;100.00
9421;BME280;4749;51.398;5.466;2023-04-24T08:04:07;100269.97;;;9.91;100.00
9421;BME280;4749;51.398;5.466;2023-04-24T08:06:34;100266.50;;;9.92;100.00
9421;BME280;4749;51.398;5.466;2023-04-24T08:09:02;100276.94;;;10.00;100.00
9421;BME280;4749;51.398;5.466;2023-04-24T08:11:29;100283.97;;;9.98;100.00
9421;BME280;4749;51.398;5.466;2023-04-24T08:13:56;100289.22;;;9.92;100.00
9421;BME280;4749;51.398;5.466;2023-04-24T08:16:23;100291.00;;;9.88;100.00
9421;BME280;4749;51.398;5.466;2023-04-24T08:18:51;100307.66;;;9.85;100.00
9421;BME280;4749;51.398;5.466;2023-04-24T08:21:18;100298.88;;;9.90;100.00
9421;BME280;4749;51.398;5.466;2023-04-24T08:23:47;100307.63;;;9.87;100.00
9421;BME280;4749;51.398;5.466;2023-04-24T08:26:14;100326.88;;;9.83;100.00
9421;BME280;4749;51.398;5.466;2023-04-24T08:28:42;100337.41;;;9.87;100.00
9421;BME280;4749;51.398;5.466;2023-04-24T08:31:09;100328.63;;;10.01;100.00
9421;BME280;4749;51.398;5.466;2023-04-24T08:33:36;100340.78;;;10.20;100.00
9421;BME280;4749;51.398;5.466;2023-04-24T08:36:05;100337.28;;;10.35;100.00
9421;BME280;4749;51.398;5.466;2023-04-24T08:38:33;100340.69;;;10.52;100.00
9421;BME280;4749;51.398;5.466;2023-04-24T08:41:01;100327.44;;;10.70;100.00
9421;BME280;4749;51.398;5.466;2023-04-24T08:43:28;100338.75;;;10.86;100.00
9421;BME280;4749;51.398;5.466;2023-04-24T08:45:57;100339.50;;;11.00;100.00
9421;BME280;4749;51.398;5.466;2023-04-24T08:48:24;100362.19;;;11.17;100.00
9421;BME280;4749;51.398;5.466;2023-04-24T08:50:58;100356.75;;;11.40;100.00
9421;BME280;4749;51.398;5.466;2023-04-24T08:53:26;100358.22;;;11.71;100.00
9421;BME280;4749;51.398;5.466;2023-04-24T08:55:55;100355.25;;;12.06;100.00
9421;BME280;4749;51.398;5.466;2023-04-24T08:58:25;100365.44;;;12.37;100.00
9421;BME280;4749;51.398;5.466;2023-04-24T09:00:58;100376.75;;;12.44;100.00
9421;BME280;4749;51.398;5.466;2023-04-24T09:03:27;100371.03;;;12.11;100.00
9421;BME280;4749;51.398;5.466;2023-04-24T09:05:55;100382.91;;;11.61;100.00
9421;BME280;4749;51.398;5.466;2023-04-24T09:08:25;100401.53;;;11.37;100.00
9421;BME280;4749;51.398;5.466;2023-04-24T09:10:52;100392.81;;;11.25;100.00
9421;BME280;4749;51.398;5.466;2023-04-24T09:13:20;100407.69;;;11.31;100.00
9421;BME280;4749;51.398;5.466;2023-04-24T09:15:47;100399.75;;;11.37;100.00
9421;BME280;4749;51.398;5.466;2023-04-24T09:18:14;100408.41;;;11.50;100.00
9421;BME280;4749;51.398;5.466;2023-04-24T09:23:29;100416.00;;;11.91;100.00
9421;BME280;4749;51.398;5.466;2023-04-24T09:25:57;100420.97;;;12.20;100.00
9421;BME280;4749;51.398;5.466;2023-04-24T09:28:30;100426.63;;;12.63;100.00
9421;BME280;4749;51.398;5.466;2023-04-24T09:31:24;100428.88;;;12.92;100.00
9421;BME280;4749;51.398;5.466;2023-04-24T09:33:59;100439.06;;;13.18;100.00
9421;BME280;4749;51.398;5.466;2023-04-24T09:36:39;100437.50;;;13.07;100.00
9421;BME280;4749;51.398;5.466;2023-04-24T09:39:10;100443.47;;;12.50;100.00
9421;BME280;4749;51.398;5.466;2023-04-24T09:41:54;100444.94;;;11.96;100.00
9421;BME280;4749;51.398;5.466;2023-04-24T09:44:26;100443.31;;;11.76;100.00
9421;BME280;4749;51.398;5.466;2023-04-24T09:46:58;100462.69;;;11.66;100.00
9421;BME280;4749;51.398;5.466;2023-04-24T09:49:31;100460.16;;;11.57;100.00
9421;BME280;4749;51.398;5.466;2023-04-24T09:52:09;100469.81;;;11.55;100.00
9421;BME280;4749;51.398;5.466;2023-04-24T09:54:37;100461.75;;;11.81;100.00
9421;BME280;4749;51.398;5.466;2023-04-24T09:57:07;100474.47;;;12.27;100.00
9421;BME280;4749;51.398;5.466;2023-04-24T09:59:34;100478.41;;;12.71;100.00
9421;BME280;4749;51.398;5.466;2023-04-24T10:02:03;100474.34;;;13.11;100.00
9421;BME280;4749;51.398;5.466;2023-04-24T10:04:57;100485.38;;;13.45;100.00
9421;BME280;4749;51.398;5.466;2023-04-24T10:07:26;100484.03;;;13.74;100.00
9421;BME280;4749;51.398;5.466;2023-04-24T10:09:54;100499.81;;;13.80;100.00
9421;BME280;4749;51.398;5.466;2023-04-24T10:12:22;100492.22;;;13.57;100.00
9421;BME280;4749;51.398;5.466;2023-04-24T10:14:50;100493.53;;;13.27;100.00
9421;BME280;4749;51.398;5.466;2023-04-24T10:17:17;100495.81;;;12.87;100.00
9421;BME280;4749;51.398;5.466;2023-04-24T10:19:47;100501.38;;;12.59;100.00
9421;BME280;4749;51.398;5.466;2023-04-24T10:22:15;100511.03;;;12.62;100.00
9421;BME280;4749;51.398;5.466;2023-04-24T10:24:45;100508.91;;;12.93;100.00
9421;BME280;4749;51.398;5.466;2023-04-24T10:27:13;100517.38;;;13.18;100.00
9421;BME280;4749;51.398;5.466;2023-04-24T10:29:43;100512.88;;;13.29;100.00
9421;BME280;4749;51.398;5.466;2023-04-24T10:32:11;100510.28;;;13.24;100.00
9421;BME280;4749;51.398;5.466;2023-04-24T10:34:38;100519.16;;;13.20;100.00
9421;BME280;4749;51.398;5.466;2023-04-24T10:37:05;100519.97;;;13.24;100.00
9421;BME280;4749;51.398;5.466;2023-04-24T10:39:33;100523.44;;;13.31;100.00
9421;BME280;4749;51.398;5.466;2023-04-24T10:42:00;100524.22;;;13.36;100.00
9421;BME280;4749;51.398;5.466;2023-04-24T10:44:36;100531.25;;;13.38;100.00
9421;BME280;4749;51.398;5.466;2023-04-24T10:47:03;100533.13;;;13.29;100.00
9421;BME280;4749;51.398;5.466;2023-04-24T10:49:31;100545.59;;;13.14;100.00
9421;BME280;4749;51.398;5.466;2023-04-24T10:52:04;100537.63;;;13.22;100.00
9421;BME280;4749;51.398;5.466;2023-04-24T10:54:35;100553.78;;;13.61;100.00
9421;BME280;4749;51.398;5.466;2023-04-24T10:59:48;100561.94;;;14.04;100.00
9421;BME280;4749;51.398;5.466;2023-04-24T11:02:16;100568.41;;;13.85;100.00
9421;BME280;4749;51.398;5.466;2023-04-24T11:04:43;100571.25;;;13.72;100.00
9421;BME280;4749;51.398;5.466;2023-04-24T11:07:12;100568.69;;;13.66;100.00
9421;BME280;4749;51.398;5.466;2023-04-24T11:09:39;100566.09;;;13.65;100.00
9421;BME280;4749;51.398;5.466;2023-04-24T11:12:11;100576.50;;;13.74;100.00
9421;BME280;4749;51.398;5.466;2023-04-24T11:17:42;100581.19;;;14.14;100.00
9421;BME280;4749;51.398;5.466;2023-04-24T11:20:17;100579.88;;;14.37;100.00
9421;BME280;4749;51.398;5.466;2023-04-24T11:22:54;100593.75;;;14.55;100.00
9421;BME280;4749;51.398;5.466;2023-04-24T11:25:24;100589.16;;;14.64;100.00
9421;BME280;4749;51.398;5.466;2023-04-24T11:28:04;100591.63;;;14.75;100.00
9421;BME280;4749;51.398;5.466;2023-04-24T11:30:32;100606.69;;;14.72;100.00
9421;BME280;4749;51.398;5.466;2023-04-24T11:33:05;100604.97;;;14.68;100.00
9421;BME280;4749;51.398;5.466;2023-04-24T11:35:39;100617.09;;;14.81;100.00
9421;BME280;4749;51.398;5.466;2023-04-24T11:38:07;100611.50;;;14.96;100.00
9421;BME280;4749;51.398;5.466;2023-04-24T11:40:51;100614.94;;;15.01;100.00
9421;BME280;4749;51.398;5.466;2023-04-24T11:43:20;100628.28;;;14.97;100.00
9421;BME280;4749;51.398;5.466;2023-04-24T11:45:50;100631.03;;;14.90;100.00
9421;BME280;4749;51.398;5.466;2023-04-24T11:48:20;100643.44;;;14.87;100.00
9421;BME280;4749;51.398;5.466;2023-04-24T11:50:50;100646.22;;;14.81;100.00
9421;BME280;4749;51.398;5.466;2023-04-24T11:53:20;100638.38;;;14.75;100.00
9421;BME280;4749;51.398;5.466;2023-04-24T11:55:48;100646.28;;;14.76;100.00
9421;BME280;4749;51.398;5.466;2023-04-24T11:58:21;100636.59;;;14.75;100.00
9421;BME280;4749;51.398;5.466;2023-04-24T12:00:56;100646.34;;;14.73;100.00
9421;BME280;4749;51.398;5.466;2023-04-24T12:03:25;100642.72;;;14.77;100.00
9421;BME280;4749;51.398;5.466;2023-04-24T12:05:52;100648.56;;;14.98;100.00
9421;BME280;4749;51.398;5.466;2023-04-24T12:08:29;100651.63;;;15.21;100.00
9421;BME280;4749;51.398;5.466;2023-04-24T12:10:57;100649.13;;;15.58;100.00
9421;BME280;4749;51.398;5.466;2023-04-24T12:13:26;100656.47;;;15.87;100.00
9421;BME280;4749;51.398;5.466;2023-04-24T12:15:53;100657.03;;;16.01;100.00
9421;BME280;4749;51.398;5.466;2023-04-24T12:18:23;100655.03;;;16.11;100.00
9421;BME280;4749;51.398;5.466;2023-04-24T12:20:51;100668.25;;;16.13;100.00
9421;BME280;4749;51.398;5.466;2023-04-24T12:23:38;100667.56;;;16.06;100.00
9421;BME280;4749;51.398;5.466;2023-04-24T12:26:06;100664.81;;;16.09;100.00
9421;BME280;4749;51.398;5.466;2023-04-24T12:28:38;100668.25;;;16.13;100.00
9421;BME280;4749;51.398;5.466;2023-04-24T12:31:06;100680.56;;;16.17;100.00
9421;BME280;4749;51.398;5.466;2023-04-24T12:33:35;100694.94;;;16.07;100.00
9421;BME280;4749;51.398;5.466;2023-04-24T12:36:02;100690.88;;;15.90;100.00
9421;BME280;4749;51.398;5.466;2023-04-24T12:38:29;100694.91;;;15.66;100.00
9421;BME280;4749;51.398;5.466;2023-04-24T12:41:13;100694.16;;;15.58;100.00
9421;BME280;4749;51.398;5.466;2023-04-24T12:43:54;100696.72;;;15.63;100.00
9421;BME280;4749;51.398;5.466;2023-04-24T12:46:22;100696.53;;;15.72;100.00
9421;BME280;4749;51.398;5.466;2023-04-24T12:48:50;100706.06;;;15.82;100.00
9421;BME280;4749;51.398;5.466;2023-04-24T12:51:17;100716.78;;;15.76;100.00
9421;BME280;4749;51.398;5.466;2023-04-24T12:53:44;100709.78;;;15.72;100.00
9421;BME280;4749;51.398;5.466;2023-04-24T12:56:11;100706.16;;;15.77;100.00
9421;BME280;4749;51.398;5.466;2023-04-24T12:58:38;100708.88;;;15.74;100.00
9421;BME280;4749;51.398;5.466;2023-04-24T13:01:05;100706.13;;;15.79;100.00
9421;BME280;4749;51.398;5.466;2023-04-24T13:03:32;100700.63;;;15.90;100.00
9421;BME280;4749;51.398;5.466;2023-04-24T13:05:59;100705.91;;;15.88;100.00
9421;BME280;4749;51.398;5.466;2023-04-24T13:08:26;100714.66;;;15.93;100.00
9421;BME280;4749;51.398;5.466;2023-04-24T13:10:54;100712.69;;;16.03;100.00
9421;BME280;4749;51.398;5.466;2023-04-24T13:13:22;100710.78;;;16.10;100.00
9421;BME280;4749;51.398;5.466;2023-04-24T13:15:49;100721.00;;;16.26;100.00
9421;BME280;4749;51.398;5.466;2023-04-24T13:18:19;100702.09;;;16.42;100.00
9421;BME280;4749;51.398;5.466;2023-04-24T13:20:46;100715.41;;;16.40;100.00
9421;BME280;4749;51.398;5.466;2023-04-24T13:23:14;100719.97;;;16.33;100.00
9421;BME280;4749;51.398;5.466;2023-04-24T13:25:42;100716.44;;;16.33;100.00
9421;BME280;4749;51.398;5.466;2023-04-24T13:28:09;100709.19;;;16.41;100.00
9421;BME280;4749;51.398;5.466;2023-04-24T13:30:36;100719.53;;;16.52;100.00
9421;BME280;4749;51.398;5.466;2023-04-24T13:33:04;100722.09;;;16.18;100.00
9421;BME280;4749;51.398;5.466;2023-04-24T13:35:31;100708.72;;;15.81;100.00
9421;BME280;4749;51.398;5.466;2023-04-24T13:37:58;100720.00;;;15.47;100.00
9421;BME280;4749;51.398;5.466;2023-04-24T13:40:26;100725.03;;;15.14;100.00